createdAt,value
2016-05-11T06:11:01.673Z,63.86
2016-05-11T06:11:11.111Z,63.57
2016-05-11T06:11:21.127Z,63.95
2016-05-11T06:11:31.142Z,63.67
2016-05-11T06:11:41.160Z,63.38
2016-05-11T06:11:51.144Z,63.28
2016-05-11T06:12:01.144Z,63.48
2016-05-11T06:12:11.160Z,63.18
2016-05-11T06:12:21.160Z,63.38
2016-05-11T06:12:31.004Z,63.18
2016-05-11T06:12:41.179Z,62.9
2016-05-11T06:12:51.023Z,63.28
2016-05-11T06:13:01.179Z,0.31
2016-05-11T06:13:11.195Z,63.48
2016-05-11T06:13:21.195Z,0.31
2016-05-11T06:13:31.414Z,0.31
2016-05-11T06:13:41.213Z,0.31
2016-05-11T06:14:00.088Z,1.46
2016-05-11T06:14:10.041Z,1.45
2016-05-11T06:14:19.869Z,1.44
2016-05-11T06:14:30.041Z,1.43
2016-05-11T06:14:40.169Z,1.42
2016-05-11T06:14:50.122Z,1.42
2016-05-11T06:15:00.106Z,1.41
2016-05-11T06:15:10.059Z,62.64
2016-05-11T06:15:20.309Z,62.64
2016-05-11T06:15:30.091Z,62.64
2016-05-11T06:15:40.093Z,0.37
2016-05-11T06:15:50.171Z,62.54
2016-05-11T06:16:00.405Z,62.54
2016-05-11T06:16:10.093Z,62.57
2016-05-11T06:16:20.015Z,62.57
2016-05-11T06:16:30.171Z,62.48
2016-05-11T06:16:40.393Z,62.48
2016-05-11T06:16:50.111Z,62.38
2016-05-11T06:17:00.174Z,62.38
2016-05-11T06:17:10.111Z,62.38
2016-05-11T06:17:20.127Z,62.29
2016-05-11T06:17:30.158Z,100
2016-05-11T06:17:40.192Z,62.19
2016-05-11T06:17:50.146Z,62.19
2016-05-11T06:18:00.052Z,36.93
2016-05-11T06:18:10.161Z,36.94
2016-05-11T06:18:20.474Z,62.09
2016-05-11T06:18:30.161Z,62.12
2016-05-11T06:18:40.179Z,62.22
2016-05-11T06:18:50.257Z,62.22
2016-05-11T06:19:24.460Z,62.03
2016-05-11T06:19:39.042Z,62.03
2016-05-11T06:19:54.902Z,62.03
2016-05-11T06:20:02.792Z,0.27
2016-05-11T06:20:19.777Z,61.74
2016-05-11T06:20:33.636Z,61.74
2016-05-11T06:20:47.512Z,61.87
2016-05-11T06:20:59.778Z,62.12
2016-05-11T06:21:13.449Z,1.07
2016-05-11T06:21:27.746Z,62.03
2016-05-11T06:21:46.593Z,62.06
2016-05-11T06:22:09.140Z,1.07
2016-05-11T06:22:18.796Z,61.87
2016-05-11T06:22:34.452Z,61.77
2016-05-11T06:22:43.456Z,62.06
2016-05-11T06:22:53.441Z,1.07
2016-05-11T06:23:03.816Z,1.07
2016-05-11T06:23:20.019Z,1.07
2016-05-11T06:23:28.910Z,1.07
2016-05-11T06:23:42.412Z,1.07
2016-05-11T06:23:58.521Z,1.07
2016-05-11T06:24:13.287Z,1.07
2016-05-11T06:24:31.880Z,1.07
2016-05-11T06:24:45.992Z,63.24
2016-05-11T06:24:55.304Z,1.07
2016-05-11T06:25:06.320Z,63.28
2016-05-11T06:25:15.789Z,1.07
2016-05-11T06:25:25.945Z,1.07
2016-05-11T06:25:37.229Z,63.57
2016-05-11T06:25:48.026Z,63.95
2016-05-11T06:25:59.729Z,1.07
2016-05-11T06:26:08.182Z,1.07
2016-05-11T06:26:19.385Z,1.07
2016-05-11T06:26:28.370Z,1.07
2016-05-11T06:26:38.013Z,1.07
2016-05-11T06:26:54.170Z,0.65
2016-05-11T06:27:23.232Z,0.65
2016-05-11T06:28:34.719Z,0.63
2016-05-11T06:28:40.722Z,0.63
2016-05-11T06:28:50.941Z,0.63
2016-05-11T06:29:00.582Z,1.97
2016-05-11T06:29:10.738Z,2.53
2016-05-11T06:29:20.754Z,0.2
2016-05-11T06:29:30.597Z,64.24
2016-05-11T06:29:40.756Z,1.42
2016-05-11T06:29:50.771Z,1.41
2016-05-11T06:30:00.771Z,2.09
2016-05-11T06:30:10.771Z,0.85
2016-05-11T06:30:20.849Z,62.18
2016-05-11T06:30:31.021Z,63.63
2016-05-11T06:30:40.649Z,64.59
2016-05-11T06:30:50.993Z,1.84
2016-05-11T06:31:00.946Z,1.84
2016-05-11T06:31:10.806Z,1.83
2016-05-11T06:31:20.821Z,1.82
2016-05-11T06:31:30.821Z,1.83
2016-05-11T06:31:40.823Z,1.83
2016-05-11T06:31:50.823Z,62.12
2016-05-11T06:32:00.839Z,38.63
2016-05-11T06:32:10.839Z,1.7
2016-05-11T06:32:20.854Z,1.69
2016-05-11T06:32:46.796Z,63.89
2016-05-11T06:32:56.780Z,63.31
2016-05-11T06:33:06.796Z,1.79
2016-05-11T06:33:16.796Z,1.07
2016-05-11T06:33:26.843Z,1.18
2016-05-11T06:33:36.812Z,1.18
2016-05-11T06:33:46.657Z,1.19
2016-05-11T06:33:56.814Z,62.5
2016-05-11T06:34:06.814Z,61.92
2016-05-11T06:34:16.829Z,62.3
2016-05-11T06:34:26.845Z,62.11
2016-05-11T06:34:36.829Z,61.76
2016-05-11T06:34:46.848Z,61.08
2016-05-11T06:34:56.848Z,1.88
2016-05-11T06:35:06.848Z,60.59
2016-05-11T06:35:16.863Z,1.75
2016-05-11T06:35:26.863Z,1.75
2016-05-11T06:35:36.879Z,1.75
2016-05-11T06:35:46.882Z,1.75
2016-05-11T06:35:56.726Z,1.75
2016-05-11T06:36:06.882Z,1.75
2016-05-11T06:36:16.741Z,1.74
2016-05-11T06:36:26.898Z,1.74
2016-05-11T06:36:36.898Z,1.74
2016-05-11T06:36:46.915Z,1.73
2016-05-11T06:56:59.391Z,100
2016-05-11T06:57:09.391Z,100
2016-05-11T06:57:19.235Z,100
2016-05-11T06:57:29.407Z,100
2016-05-11T06:57:39.409Z,100
2016-05-11T06:57:49.424Z,100
2016-05-11T06:57:59.424Z,99.8
2016-05-11T06:58:09.424Z,99.8
2016-05-11T06:58:33.299Z,0.02
2016-05-11T06:58:43.318Z,0.02
2016-05-11T06:59:19.349Z,0.94
2016-05-11T06:59:29.302Z,57.12
2016-05-11T06:59:39.165Z,57.79
2016-05-11T06:59:49.321Z,57.79
2016-05-11T06:59:59.321Z,58.09
2016-05-11T07:00:09.337Z,57.89
2016-05-11T07:00:19.337Z,57.79
2016-05-11T07:00:29.743Z,57.7
2016-05-11T07:00:40.746Z,58.15
2016-05-11T07:00:49.355Z,58.45
2016-05-11T07:00:59.371Z,58.15
2016-05-11T07:01:09.855Z,59.12
2016-05-11T07:01:19.808Z,58.93
2016-05-11T07:01:29.668Z,58.73
2016-05-11T07:01:39.811Z,58.64
2016-05-11T07:01:49.671Z,58.64
2016-05-11T07:01:59.671Z,58.15
2016-05-11T07:02:09.827Z,57.87
2016-05-11T07:06:17.040Z,1
2016-05-11T07:06:26.915Z,1.01
2016-05-11T08:01:09.548Z,55
2016-05-11T08:01:19.548Z,55
2016-05-11T08:01:29.579Z,55.58
2016-05-11T08:01:39.657Z,55.4
2016-05-11T08:01:49.566Z,55.4
2016-05-11T08:01:59.566Z,55.66
2016-05-11T08:02:09.582Z,55.27
2016-05-11T14:16:42.299Z,58.39
2016-05-11T14:16:52.299Z,57.23
2016-05-11T14:17:12.316Z,57.04
2016-05-11T14:17:22.316Z,57.33
2016-05-11T14:17:32.316Z,58.39
2016-05-11T14:17:42.347Z,58.69
2016-05-11T14:17:52.332Z,57.81
2016-05-11T14:18:02.332Z,58.62
2016-05-11T14:18:12.349Z,58.11
2016-05-11T14:18:22.349Z,57.81
2016-05-11T14:18:32.349Z,57.14
2016-05-11T14:18:42.365Z,56.59
2016-05-11T14:18:52.209Z,56.16
2016-05-11T14:19:02.365Z,55.9
2016-05-11T14:19:12.384Z,55.68
2016-05-11T14:19:22.384Z,55.71
2016-05-11T14:19:32.384Z,55.49
2016-05-11T14:19:42.243Z,55.71
2016-05-11T14:19:52.384Z,53.49
2016-05-11T14:20:02.399Z,55.81
2016-05-11T14:20:12.402Z,55.9
2016-05-11T14:20:22.262Z,55.9
2016-05-11T14:20:32.262Z,56.2
2016-05-11T14:20:42.434Z,57.17
2016-05-11T14:20:52.434Z,56.9
2016-05-11T14:21:02.434Z,57.39
2016-05-11T14:21:12.437Z,56.41
2016-05-11T14:21:22.296Z,53.08
2016-05-11T14:21:32.452Z,58.03
2016-05-11T14:21:42.452Z,56.15
2016-05-11T14:21:52.452Z,57.03
2016-05-11T14:22:02.468Z,59.55
2016-05-11T14:22:12.471Z,61.58
2016-05-11T14:22:22.486Z,61.49
2016-05-11T14:22:32.486Z,61.68
2016-05-11T14:22:42.486Z,62.07
2016-05-11T14:22:52.486Z,61.68
2016-05-11T14:23:02.502Z,61.22
2016-05-11T14:23:12.395Z,60.94
2016-05-11T14:23:22.520Z,61.13
2016-05-11T14:23:32.520Z,60.25
2016-05-11T14:23:42.582Z,60.16
2016-05-11T14:23:52.535Z,59.87
2016-05-11T14:24:02.535Z,59.28
2016-05-11T14:24:12.382Z,58.9
2016-05-11T14:24:22.445Z,58.9
2016-05-11T14:24:32.554Z,57.54
2016-05-11T14:24:42.554Z,57.22
2016-05-11T14:24:52.570Z,57.06
2016-05-11T14:25:02.570Z,56.37
2016-05-11T14:25:12.415Z,55.99
2016-05-11T14:25:22.572Z,55.5
2016-05-11T14:25:32.572Z,55.31
2016-05-11T14:25:42.431Z,55.21
2016-05-11T14:25:52.431Z,54.6
2016-05-11T14:26:02.587Z,54.53
2016-05-11T14:26:12.606Z,54.21
2016-05-11T14:26:22.621Z,53.85
2016-05-11T14:26:32.621Z,53.66
2016-05-11T14:26:42.621Z,53.15
2016-05-11T14:26:52.621Z,51.43
2016-05-11T14:27:02.653Z,49.77
2016-05-11T14:27:12.640Z,49.1
2016-05-11T14:27:22.640Z,47.76
2016-05-11T14:27:32.656Z,47.47
2016-05-11T14:27:42.656Z,46.6
2016-05-11T14:27:52.656Z,46.01
2016-05-11T14:28:02.671Z,45.36
2016-05-11T14:28:12.674Z,44.68
2016-05-11T14:28:22.674Z,44.12
2016-05-11T14:28:32.690Z,44.02
2016-05-11T14:28:42.690Z,43.54
2016-05-11T14:28:52.706Z,43.73
2016-05-11T14:29:02.706Z,43.36
2016-05-11T14:29:12.708Z,43.07
2016-05-11T14:29:22.567Z,42.68
2016-05-11T14:29:32.723Z,42.7
2016-05-11T14:29:42.723Z,42.41
2016-05-11T14:29:52.723Z,42.02
2016-05-11T14:30:02.879Z,41.63
2016-05-11T14:30:12.742Z,41.06
2016-05-11T14:30:22.773Z,40.78
2016-05-11T14:30:32.757Z,40.58
2016-05-11T14:30:43.039Z,40.48
2016-05-11T14:30:52.773Z,40.09
2016-05-11T14:31:02.773Z,39.61
2016-05-11T14:31:12.792Z,39.53
2016-05-11T14:31:22.792Z,40.01
2016-05-11T14:31:33.370Z,39.34
2016-05-11T14:31:42.885Z,39.43
2016-05-11T14:31:52.651Z,39.34
2016-05-11T14:32:02.823Z,39.04
2016-05-11T14:32:12.825Z,39.34
2016-05-11T14:32:22.825Z,38.85
2016-05-11T14:32:32.825Z,38.85
2016-05-11T14:32:42.825Z,38.46
2016-05-11T14:32:52.841Z,38.18
2016-05-11T14:33:02.841Z,38.36
2016-05-11T14:33:12.860Z,38.18
2016-05-11T14:33:22.704Z,38.18
2016-05-11T14:33:32.860Z,37.58
2016-05-11T14:33:42.860Z,37.87
2016-05-11T14:33:52.876Z,37.79
2016-05-11T14:34:02.876Z,38.09
2016-05-11T14:34:12.737Z,38.18
2016-05-11T14:34:22.893Z,37.99
2016-05-11T14:34:32.909Z,37.99
2016-05-11T14:34:42.909Z,37.89
2016-05-11T14:34:52.909Z,37.89
2016-05-11T14:35:02.909Z,37.79
2016-05-11T14:35:12.911Z,37.7
2016-05-11T14:35:22.786Z,37.6
2016-05-11T14:35:32.927Z,37.58
2016-05-11T14:35:42.942Z,37.6
2016-05-11T14:35:52.942Z,37.6
2016-05-11T14:36:02.958Z,37.7
2016-05-11T14:36:12.977Z,37.6
2016-05-11T14:36:22.961Z,37.48
2016-05-11T14:36:32.977Z,37.29
2016-05-11T14:36:42.977Z,37.29
2016-05-11T14:36:52.992Z,37.58
2016-05-11T14:37:02.836Z,37.39
2016-05-11T14:37:12.995Z,37.58
2016-05-11T14:37:23.105Z,37.48
2016-05-11T14:37:32.855Z,37.29
2016-05-11T14:37:43.026Z,37.29
2016-05-11T14:37:53.011Z,37.12
2016-05-11T14:38:03.026Z,37.12
2016-05-11T14:38:13.028Z,36.71
2016-05-11T14:38:23.044Z,37
2016-05-11T14:38:33.044Z,36.8
2016-05-11T14:38:44.169Z,37.02
2016-05-11T14:38:53.060Z,36.72
2016-05-11T14:39:03.060Z,36.82
2016-05-11T14:39:13.064Z,36.82
2016-05-11T14:39:22.923Z,36.82
2016-05-11T14:39:33.079Z,36.82
2016-05-11T14:39:43.095Z,36.63
2016-05-11T14:39:53.095Z,37.21
2016-05-11T14:40:03.111Z,36.43
2016-05-11T14:40:13.114Z,36.43
2016-05-11T14:40:23.145Z,36.53
2016-05-11T14:40:33.129Z,36.33
2016-05-11T14:40:42.973Z,36.45
2016-05-11T14:40:53.129Z,36.84
2016-05-11T14:41:03.145Z,36.55
2016-05-11T14:41:13.146Z,36.35
2016-05-11T14:41:23.161Z,36.65
2016-05-11T14:41:33.161Z,36.55
2016-05-11T14:41:43.161Z,36.66
2016-05-11T14:41:53.161Z,36.27
2016-05-11T14:42:03.177Z,36.39
2016-05-11T14:42:13.180Z,36.19
2016-05-11T14:42:23.180Z,36.39
2016-05-11T14:42:33.258Z,36
2016-05-11T14:42:43.196Z,35.41
2016-05-11T14:42:53.196Z,35.12
2016-05-11T14:43:03.211Z,35.41
2016-05-11T14:43:13.230Z,35.22
2016-05-11T14:43:23.230Z,35.12
2016-05-11T14:43:33.230Z,35.12
2016-05-11T14:43:43.246Z,34.92
2016-05-11T14:43:53.246Z,35.12
2016-05-11T14:44:03.246Z,35.12
2016-05-11T14:44:13.264Z,35.14
2016-05-11T14:44:23.389Z,35.04
2016-05-11T14:44:33.264Z,34.94
2016-05-11T14:44:43.280Z,34.86
2016-05-11T14:44:53.280Z,34.67
2016-05-11T14:45:03.280Z,34.48
2016-05-11T14:45:13.313Z,34.48
2016-05-11T14:45:23.297Z,34.39
2016-05-11T14:45:33.297Z,33.9
2016-05-11T14:45:43.329Z,34.01
2016-05-11T14:45:53.313Z,33.74
2016-05-11T14:46:03.532Z,33.64
2016-05-11T14:46:13.332Z,33.45
2016-05-11T14:46:23.175Z,33.26
2016-05-11T14:46:33.597Z,32.97
2016-05-11T14:46:43.347Z,32.97
2016-05-11T14:46:53.347Z,32.97
2016-05-11T14:47:03.363Z,32.78
2016-05-11T14:47:13.366Z,32.6
2016-05-11T14:47:23.366Z,32.5
2016-05-11T14:47:33.397Z,32.39
2016-05-11T14:47:43.397Z,32.6
2016-05-11T14:47:53.413Z,32.5
2016-05-11T14:48:03.413Z,32.1
2016-05-11T14:48:13.431Z,32.01
2016-05-11T14:48:23.275Z,32.09
2016-05-11T14:48:33.416Z,32.39
2016-05-11T14:48:43.260Z,32.39
2016-05-11T14:48:53.431Z,32.39
2016-05-11T14:49:03.431Z,32.29
2016-05-11T14:49:13.449Z,32.09
2016-05-11T14:49:23.449Z,32.48
2016-05-11T14:49:33.465Z,32.09
2016-05-11T14:49:43.465Z,31.7
2016-05-11T14:49:53.308Z,32.01
2016-05-11T14:50:03.465Z,31.6
2016-05-11T14:50:13.577Z,31.9
2016-05-11T14:50:23.499Z,32.09
2016-05-11T14:50:33.499Z,32.09
2016-05-11T14:50:43.499Z,31.51
2016-05-11T14:50:53.515Z,31.31
2016-05-11T14:51:03.515Z,31.31
2016-05-11T14:51:13.517Z,31.31
2016-05-11T14:51:23.532Z,31.51
2016-05-11T14:51:33.532Z,31.7
2016-05-11T14:51:43.392Z,31.31
2016-05-11T14:51:53.579Z,31.11
2016-05-11T14:52:03.548Z,31.2
2016-05-11T14:52:13.566Z,31.68
2016-05-11T14:52:25.254Z,31.59
2016-05-11T14:52:33.566Z,31
2016-05-11T14:52:43.410Z,31.18
2016-05-11T14:52:53.598Z,31.18
2016-05-11T14:53:03.582Z,31.26
2016-05-11T14:53:13.585Z,31.26
2016-05-11T14:53:23.601Z,31.46
2016-05-11T14:53:33.601Z,31.38
2016-05-11T14:53:43.616Z,31.57
2016-05-11T14:53:53.616Z,31.46
2016-05-11T14:54:03.632Z,31.46
2016-05-11T14:54:13.635Z,31.56
2016-05-11T14:54:23.635Z,31.65
2016-05-11T14:54:33.635Z,31.75
2016-05-11T14:54:43.651Z,31.85
2016-05-11T14:54:53.666Z,31.95
2016-05-11T14:55:03.510Z,31.64
2016-05-11T14:55:13.668Z,31.85
2016-05-11T14:55:23.684Z,32.34
2016-05-11T14:55:33.684Z,32.43
2016-05-11T14:55:43.699Z,32.34
2016-05-11T14:55:53.699Z,32.16
2016-05-11T14:56:03.715Z,32.34
2016-05-11T14:56:13.718Z,32.16
2016-05-11T14:56:23.562Z,32.06
2016-05-11T14:56:33.718Z,32.16
2016-05-11T14:56:43.734Z,31.77
2016-05-11T14:56:53.734Z,31.87
2016-05-11T14:57:03.734Z,31.67
2016-05-11T14:57:13.752Z,32.26
2016-05-11T14:57:23.768Z,32.16
2016-05-11T14:57:33.768Z,32.34
2016-05-11T14:57:43.768Z,32.24
2016-05-11T14:57:53.768Z,32.53
2016-05-11T14:58:03.784Z,32.35
2016-05-11T14:58:13.787Z,32.34
2016-05-11T14:58:23.787Z,32.34
2016-05-11T14:58:33.646Z,32.43
2016-05-11T14:58:43.802Z,32.45
2016-05-11T14:58:53.802Z,32.73
2016-05-11T14:59:03.677Z,32.84
2016-05-11T14:59:13.820Z,32.94
2016-05-11T14:59:23.679Z,32.92
2016-05-11T14:59:33.851Z,32.94
2016-05-11T14:59:43.914Z,32.73
2016-05-11T14:59:53.851Z,32.82
2016-05-11T15:00:03.867Z,32.84
2016-05-11T15:00:13.854Z,32.75
2016-05-11T15:00:23.870Z,32.75
2016-05-11T15:00:33.885Z,32.65
2016-05-11T15:00:44.198Z,32.73
2016-05-11T15:00:53.901Z,32.73
2016-05-11T15:01:03.901Z,32.73
2016-05-11T15:01:13.748Z,32.92
2016-05-11T15:01:23.920Z,33.12
2016-05-11T15:01:34.310Z,32.91
2016-05-11T15:01:43.920Z,33.2
2016-05-11T15:01:53.951Z,33.01
2016-05-11T15:02:03.935Z,33.01
2016-05-11T15:02:13.937Z,33.3
2016-05-11T15:02:23.937Z,33.2
2016-05-11T15:02:33.953Z,33.48
2016-05-11T15:02:43.953Z,33.26
2016-05-11T15:02:53.968Z,33.75
2016-05-11T15:03:04.047Z,33.75
2016-05-11T15:03:14.034Z,33.85
2016-05-11T15:03:23.971Z,34.05
2016-05-11T15:03:33.987Z,34.24
2016-05-11T15:03:44.003Z,34.34
2016-05-11T15:03:54.003Z,34.32
2016-05-11T15:04:04.003Z,34.12
2016-05-11T15:04:13.864Z,34.22
2016-05-11T15:04:24.020Z,34.42
2016-05-11T15:04:34.036Z,34.52
2016-05-11T15:04:44.036Z,34.12
2016-05-11T15:04:54.036Z,34.61
2016-05-11T15:05:04.052Z,34.81
2016-05-11T15:05:14.056Z,34.71
2016-05-11T15:05:24.056Z,34.81
2016-05-11T15:05:34.071Z,34.81
2016-05-11T15:05:44.071Z,34.61
2016-05-11T15:05:54.071Z,34.5
2016-05-11T15:06:04.087Z,34.5
2016-05-11T15:06:14.120Z,34.99
2016-05-11T15:06:24.120Z,35.2
2016-05-11T15:06:34.104Z,35.18
2016-05-11T15:06:44.104Z,34.79
2016-05-11T15:06:54.120Z,35.38
2016-05-11T15:07:04.120Z,35.28
2016-05-11T15:07:14.372Z,35.18
2016-05-11T15:07:24.310Z,35.18
2016-05-11T15:07:34.388Z,35.18
2016-05-11T15:07:44.153Z,34.89
2016-05-11T15:07:53.997Z,35.38
2016-05-11T15:08:04.153Z,35.3
2016-05-11T15:08:14.031Z,34.5
2016-05-11T15:08:24.172Z,34.99
2016-05-11T15:08:34.172Z,34.79
2016-05-11T15:08:44.188Z,34.69
2016-05-11T15:08:54.203Z,34.5
2016-05-11T15:09:04.203Z,34.5
2016-05-11T15:09:14.206Z,34.5
2016-05-11T15:09:24.222Z,34.69
2016-05-11T15:09:34.362Z,34.59
2016-05-11T15:09:44.503Z,34.69
2016-05-11T15:09:54.362Z,35.26
2016-05-11T15:10:04.097Z,34.97
2016-05-11T15:10:14.506Z,35.16
2016-05-11T15:10:24.100Z,35.16
2016-05-11T15:10:34.100Z,35.18
2016-05-11T15:10:44.272Z,35.08
2016-05-11T15:10:54.131Z,35.18
2016-05-11T15:11:04.287Z,35.08
2016-05-11T15:11:14.289Z,35.18
2016-05-11T15:11:24.289Z,35.28
2016-05-11T15:11:34.477Z,34.5
2016-05-11T15:11:44.305Z,34.59
2016-05-11T15:11:54.305Z,34.5
2016-05-11T15:12:04.321Z,34.69
2016-05-11T15:12:14.324Z,34.21
2016-05-11T15:12:24.324Z,34.29
2016-05-11T15:12:34.339Z,34.39
2016-05-11T15:12:44.339Z,34.19
2016-05-11T15:12:54.652Z,34.58
2016-05-11T15:13:04.355Z,34.88
2016-05-11T15:13:14.358Z,34.78
2016-05-11T15:13:24.373Z,34.68
2016-05-11T15:13:34.373Z,34.68
2016-05-11T15:13:44.217Z,34.97
2016-05-11T15:13:54.373Z,35.06
2016-05-11T15:14:04.233Z,35.36
2016-05-11T15:14:14.391Z,35.25
2016-05-11T15:14:24.985Z,34.95
2016-05-11T15:14:34.407Z,34.95
2016-05-11T15:14:44.407Z,34.86
2016-05-11T15:14:54.407Z,34.86
2016-05-11T15:15:04.438Z,34.95
2016-05-11T15:15:14.425Z,34.95
2016-05-11T15:15:24.441Z,35.25
2016-05-11T15:15:34.582Z,35.15
2016-05-11T15:15:44.285Z,34.86
2016-05-11T15:15:54.300Z,34.86
2016-05-11T15:16:04.472Z,35.25
2016-05-11T15:16:14.475Z,35.25
2016-05-11T15:16:24.506Z,35.15
2016-05-11T15:16:34.475Z,35.15
2016-05-11T15:16:44.491Z,35.13
2016-05-11T15:16:54.491Z,35.23
2016-05-11T15:17:04.538Z,34.94
2016-05-11T15:17:14.713Z,35.52
2016-05-11T15:17:24.775Z,35.42
2016-05-11T15:17:34.353Z,35.33
2016-05-11T15:17:44.525Z,35.91
2016-05-11T15:17:54.525Z,35.81
2016-05-11T15:18:04.541Z,35.71
2016-05-11T15:18:14.558Z,35.99
2016-05-11T15:18:24.543Z,36
2016-05-11T15:18:34.558Z,35.81
2016-05-11T15:18:44.558Z,36
2016-05-11T15:18:54.558Z,35.71
2016-05-11T15:19:04.574Z,36.08
2016-05-11T15:19:14.577Z,36
2016-05-11T15:19:24.593Z,36.08
2016-05-11T15:19:34.436Z,35.99
2016-05-11T15:19:44.608Z,35.99
2016-05-11T15:19:54.608Z,36.47
2016-05-11T15:20:04.624Z,36.57
2016-05-11T15:20:14.627Z,35.99
2016-05-11T15:20:24.783Z,36.57
2016-05-11T15:20:34.627Z,36.47
2016-05-11T15:20:44.642Z,36.38
2016-05-11T15:20:54.642Z,36.08
2016-05-11T15:21:04.658Z,36.38
2016-05-11T15:21:14.661Z,36.18
2016-05-11T15:21:24.661Z,36.28
2016-05-11T15:21:34.677Z,36.08
2016-05-11T15:21:44.677Z,36.18
2016-05-11T15:21:54.692Z,36.18
2016-05-11T15:22:04.708Z,36.18
2016-05-11T15:22:14.694Z,36.47
2016-05-11T15:22:24.694Z,36.18
2016-05-11T15:22:34.710Z,35.89
2016-05-11T15:22:44.726Z,36.08
2016-05-11T15:22:54.726Z,36.28
2016-05-11T15:23:04.726Z,36.38
2016-05-11T15:23:14.728Z,36.08
2016-05-11T15:23:24.743Z,35.99
2016-05-11T15:23:34.603Z,36.08
2016-05-11T15:23:44.759Z,35.89
2016-05-11T15:23:54.759Z,35.7
2016-05-11T15:24:04.759Z,35.6
2016-05-11T15:24:14.621Z,35.7
2016-05-11T15:24:24.777Z,35.89
2016-05-11T15:24:34.777Z,35.8
2016-05-11T15:24:44.637Z,35.7
2016-05-11T15:24:54.824Z,35.13
2016-05-11T15:25:04.809Z,35.7
2016-05-11T15:25:14.812Z,35.81
2016-05-11T15:25:24.812Z,35.81
2016-05-11T15:25:34.827Z,35.23
2016-05-11T15:25:44.827Z,35.52
2016-05-11T15:25:54.843Z,35.23
2016-05-11T15:26:04.843Z,35.33
2016-05-11T15:26:14.846Z,34.94
2016-05-11T15:26:24.705Z,35.42
2016-05-11T15:26:34.862Z,35.05
2016-05-11T15:26:44.862Z,35.15
2016-05-11T15:26:54.877Z,34.95
2016-05-11T15:27:04.877Z,34.47
2016-05-11T15:27:14.740Z,34.66
2016-05-11T15:27:24.911Z,34.76
2016-05-11T15:27:34.896Z,34.47
2016-05-11T15:27:44.896Z,34.47
2016-05-11T15:27:54.911Z,33.69
2016-05-11T15:28:04.927Z,33.49
2016-05-11T15:28:15.023Z,33.01
2016-05-11T15:28:24.773Z,33.2
2016-05-11T15:28:34.929Z,32.81
2016-05-11T15:28:44.945Z,33.11
2016-05-11T15:28:54.945Z,32.81
2016-05-11T15:29:04.960Z,32.52
2016-05-11T15:29:14.963Z,32.52
2016-05-11T15:29:24.979Z,32.52
2016-05-11T15:29:34.979Z,32.71
2016-05-11T15:29:44.979Z,32.91
2016-05-11T15:29:54.979Z,32.81
2016-05-11T15:30:04.995Z,32.52
2016-05-11T15:30:14.840Z,32.52
2016-05-11T15:30:25.012Z,32.62
2016-05-11T15:30:35.012Z,32.52
2016-05-11T15:30:45.028Z,32.81
2016-05-11T15:30:55.028Z,32.81
2016-05-11T15:31:05.059Z,32.7
2016-05-11T15:31:15.047Z,32.89
2016-05-11T15:31:26.126Z,32.79
2016-05-11T15:31:35.063Z,32.6
2016-05-11T15:31:45.079Z,32.89
2016-05-11T15:31:55.063Z,32.87
2016-05-11T15:32:04.907Z,33.07
2016-05-11T15:32:15.081Z,33.09
2016-05-11T15:32:25.081Z,32.7
2016-05-11T15:32:35.081Z,32.59
2016-05-11T15:32:45.096Z,32.59
2016-05-11T15:32:55.112Z,32.68
2016-05-11T15:33:05.096Z,32.59
2016-05-11T15:33:15.114Z,32.87
2016-05-11T15:33:25.114Z,32.68
2016-05-11T15:33:35.130Z,32.87
2016-05-11T15:33:45.130Z,32.87
2016-05-11T15:33:55.145Z,33.07
2016-05-11T15:34:05.130Z,33.07
2016-05-11T15:34:15.148Z,33.07
2016-05-11T15:34:25.148Z,33.07
2016-05-11T15:34:35.164Z,32.87
2016-05-11T15:34:45.164Z,33.15
2016-05-11T15:34:55.164Z,32.87
2016-05-11T15:35:05.179Z,32.76
2016-05-11T15:35:15.182Z,32.76
2016-05-11T15:35:25.042Z,33.07
2016-05-11T15:35:35.198Z,32.86
2016-05-11T15:35:45.198Z,32.96
2016-05-11T15:35:55.214Z,33.15
2016-05-11T15:36:05.214Z,33.25
2016-05-11T15:36:15.232Z,33.36
2016-05-11T15:36:25.232Z,32.97
2016-05-11T15:36:35.232Z,33.07
2016-05-11T15:36:45.248Z,33.17
2016-05-11T15:36:55.248Z,33.17
2016-05-11T15:37:05.248Z,33.07
2016-05-11T15:37:15.267Z,32.87
2016-05-11T15:37:25.267Z,32.87
2016-05-11T15:37:35.282Z,33.09
2016-05-11T15:37:45.282Z,33.07
2016-05-11T15:37:55.282Z,32.99
2016-05-11T15:38:05.298Z,33.28
2016-05-11T15:38:15.315Z,32.7
2016-05-11T15:38:25.300Z,32.6
2016-05-11T15:38:35.159Z,32.6
2016-05-11T15:38:45.175Z,32.6
2016-05-11T15:38:55.175Z,32.42
2016-05-11T15:39:05.331Z,32.32
2016-05-11T15:39:15.349Z,32.71
2016-05-11T15:39:25.333Z,32.32
2016-05-11T15:39:35.349Z,32.52
2016-05-11T15:39:45.349Z,32.13
2016-05-11T15:39:55.364Z,32.32
2016-05-11T15:40:05.380Z,32.32
2016-05-11T15:40:15.367Z,32.24
2016-05-11T15:40:25.227Z,32.24
2016-05-11T15:40:35.227Z,32.34
2016-05-11T15:40:45.414Z,32.05
2016-05-11T15:40:55.399Z,32.24
2016-05-11T15:41:05.399Z,32.34
2016-05-11T15:41:15.418Z,32.05
2016-05-11T15:41:25.418Z,32.35
2016-05-11T15:41:35.418Z,32.26
2016-05-11T15:41:45.434Z,31.96
2016-05-11T15:41:55.434Z,31.77
2016-05-11T15:42:05.449Z,31.67
2016-05-11T15:42:15.451Z,31.57
2016-05-11T15:42:25.451Z,31.48
2016-05-11T15:42:35.451Z,31.77
2016-05-11T15:42:45.483Z,31.96
2016-05-11T15:42:55.467Z,31.87
2016-05-11T15:43:05.326Z,31.67
2016-05-11T15:43:15.485Z,31.96
2016-05-11T15:43:25.485Z,31.77
2016-05-11T15:43:35.500Z,31.57
2016-05-11T15:43:45.516Z,31.87
2016-05-11T15:43:55.360Z,31.56
2016-05-11T15:44:05.516Z,31.56
2016-05-11T15:44:15.519Z,31.66
2016-05-11T15:44:25.535Z,31.64
2016-05-11T15:44:35.535Z,31.45
2016-05-11T15:44:45.550Z,31.54
2016-05-11T15:44:55.550Z,31.64
2016-05-11T15:45:05.566Z,31.64
2016-05-11T15:45:15.553Z,31.74
2016-05-11T15:45:25.413Z,31.64
2016-05-11T15:45:35.584Z,32.03
2016-05-11T15:45:45.584Z,32.02
2016-05-11T15:45:56.006Z,32.02
2016-05-11T15:46:05.444Z,32.21
2016-05-11T15:46:15.853Z,32.21
2016-05-11T15:46:25.603Z,32.31
2016-05-11T15:46:35.603Z,32.21
2016-05-11T15:46:45.619Z,32.21
2016-05-11T15:46:55.900Z,32.4
2016-05-11T15:47:05.478Z,32.21
2016-05-11T15:47:15.480Z,32.4
2016-05-11T15:47:25.636Z,32.11
2016-05-11T15:47:35.496Z,32.4
2016-05-11T15:47:45.652Z,32.11
2016-05-11T15:47:55.855Z,32.02
2016-05-11T15:48:05.668Z,32.4
2016-05-11T15:48:15.702Z,32.31
2016-05-11T15:48:25.686Z,32.11
2016-05-11T15:48:35.686Z,31.53
2016-05-11T15:48:45.702Z,31.51
2016-05-11T15:48:55.702Z,31.53
2016-05-11T15:49:05.702Z,31.82
2016-05-11T15:49:15.720Z,31.81
2016-05-11T15:49:25.720Z,31.71
2016-05-11T15:49:35.720Z,31.71
2016-05-11T15:49:45.720Z,31.81
2016-05-11T15:49:55.580Z,31.71
2016-05-11T15:50:05.736Z,31.32
2016-05-11T15:50:15.754Z,31.03
2016-05-11T15:50:25.769Z,31.21
2016-05-11T15:50:35.769Z,31.11
2016-05-11T15:50:45.613Z,30.82
2016-05-11T15:50:55.769Z,30.91
2016-05-11T15:51:05.769Z,30.82
2016-05-11T15:51:15.804Z,31.01
2016-05-11T15:51:25.632Z,30.91
2016-05-11T15:51:35.804Z,30.82
2016-05-11T15:51:45.819Z,30.82
2016-05-11T15:51:55.804Z,30.72
2016-05-11T15:52:05.819Z,30.91
2016-05-11T15:52:15.838Z,31.01
2016-05-11T15:52:25.838Z,30.82
2016-05-11T15:52:35.838Z,31.01
2016-05-11T15:52:45.838Z,31.01
2016-05-11T15:52:55.853Z,30.91
2016-05-11T15:53:05.869Z,30.82
2016-05-11T15:53:15.700Z,30.82
2016-05-11T15:53:25.872Z,30.52
2016-05-11T15:53:35.872Z,30.62
2016-05-11T15:53:45.872Z,31.21
2016-05-11T15:53:55.731Z,31.01
2016-05-11T15:54:05.888Z,30.62
2016-05-11T15:54:15.905Z,31.11
2016-05-11T15:54:25.905Z,31.01
2016-05-11T15:54:35.749Z,31.11
2016-05-11T15:54:45.921Z,31.01
2016-05-11T15:54:55.937Z,30.82
2016-05-11T15:55:05.765Z,30.62
2016-05-11T15:55:15.940Z,30.82
2016-05-11T15:55:25.940Z,30.62
2016-05-11T15:55:35.799Z,30.82
2016-05-11T15:55:45.971Z,30.74
2016-05-11T15:55:55.955Z,30.74
2016-05-11T15:56:05.955Z,31.03
2016-05-11T15:56:15.974Z,31.03
2016-05-11T15:56:25.974Z,31.13
2016-05-11T15:56:35.989Z,30.83
2016-05-11T15:56:46.005Z,30.54
2016-05-11T15:56:55.989Z,30.55
2016-05-11T15:57:06.005Z,30.74
2016-05-11T15:57:16.007Z,30.36
2016-05-11T15:57:26.038Z,30.75
2016-05-11T15:57:36.023Z,30.75
2016-05-11T15:57:46.038Z,30.75
2016-05-11T15:57:56.038Z,30.55
2016-05-11T15:58:06.038Z,30.26
2016-05-11T15:58:16.041Z,30.36